aviador You're here:

KILM Decoded Metar

WILMINGTON in NC, USA
Report Time2018-05-23 15:53:00
UTC Time2018-05-23 16:44:19
Flight Rules vfr VFR
Wind240° at 10 Gusting to 15 kt
W.Decomp.*RWY 24: 9.9 kt HW 1.2 kt RCW
RWY 17: 2.2 kt HW 9.7 kt RCW
W.Rank240° ranks 10
Current wind is above 240° avg. (7.9)
Visibility9999 m
Phenomena:N/A
Clouds:Scattered 031 Hf
Scattered 036 Hf
Expected CloudBase > 3,200 ft AGL from Temp-Dew spread
CeilingNone
Temp29°C (ISA +14)
Dew Point21°C (62% RH)
Heat Index31.3°C
QNH1019 hPa
Density Alt1,772 ft
Elevation30 ft
Report Wrong Elevation
Raw Report
METAR KILM 231553Z 24010G15KT 10SM SCT031 SCT036 29/21 A3008 RMK AO2
SLP186 T02890206=

Extra information for KILM:More info

Metar Taf Metar & Taf Last 4 Metars F.Rules Stats Wind Profile Meteogram Temp Stats Airport Information Weather charts Add Link Nearby VenuesMetar ALERT Operation Metar Decoded Social comments

AIRNAV info for KILM